05:59
Airports
History
Links
Donate
Help keep this website running!
PayPal
Bitcoin
This page is community maintained. The information is intended for PC simulator navigation or reference.
Always use approved charts for navigation.
LEVB
Aerodrom - Villafranca de Bonany
Aerodrom - Villafranca de Bonany (LEVB)
Vilafranca de Bonany, Balearic Islands, Spain (7250)
4
Lat/Lng:39° 34' 38.05" N / 3° 7' 35.06" E
39.577235 / 3.126405
Elevation:236'ft / 72mMSL
ID / ICAO:LEVB
Runways:1
Longest:7-25
Grass 467m / 1,531ft
Nearby Weather05:30 GMT 2017-11-20
Nearby weather at LEPA, Palma De Mallorca located 20.9 nautical miles from LEVB
Altimeter: 30.21
Visibility: 6.2 statute miles
Wind: 2 knots (from 030°)
Temp: 5°c / 41°f
Humidity: 100.0%

METAR: LEPA 200530Z 03002KT 9999 FEW023 05/05 Q1023 NOSIG

(Powered by phpweather)
Nearby VORs <50NM
Nearby NDBs
Runway 7 / 25
Dimensions:466.7 x 35.1m 1531' x 115'ft
Surface:Grass
Runway 7 [A]Runway 25 [B]
Heading:061°TH 241°TH
Lat:
Lng:
39° 34' 34.43"N
3° 7' 26.37"E
39° 34' 41.66"N
3° 7' 43.74"E
User Notes and Comments
39° 34' 38.05" N / 3° 7' 35.06" E
Distance To
Airport ID:
Nearby Airports
(C) Palma De Mallorca 20.9 NM
LEPA ( WX ) W 265°
(C) Son Bonet 22.6 NM
LESB W 273°
4 Cala'n Blanes Menorca 46.7 NM
LEWL NE 51°
(C) Menorca 61.3 NM
LEMH ( WX ) ENE 71°
(U) SAN LUIS 63.3 NM
LESL ENE 71°
(C) Ibiza 105.7 NM
LEIB ( WX ) WSW 242°
(C) Barcelona El Prat 130.8 NM
LEBL ( WX ) NNW 335°
VFR Chart
Flight Planning at SkyVector.com